createdAt,value
2023-01-29T00:01:17.073Z,3.00
2023-01-29T00:06:19.921Z,3.00
2023-01-29T00:11:24.032Z,2.00
2023-01-29T00:16:28.396Z,5.20
2023-01-29T00:21:32.072Z,3.40
2023-01-29T00:26:34.880Z,3.00
2023-01-29T00:31:39.176Z,3.00
2023-01-29T00:36:44.901Z,5.00
2023-01-29T00:42:06.300Z,3.00
2023-01-29T00:47:30.665Z,2.20
2023-01-29T00:52:33.535Z,2.80
2023-01-29T00:57:36.785Z,2.00
2023-01-29T01:02:58.416Z,2.20
2023-01-29T01:08:02.436Z,2.00
2023-01-29T01:13:06.400Z,3.00
2023-01-29T01:18:10.696Z,3.00
2023-01-29T01:23:13.778Z,2.00
2023-01-29T01:28:16.631Z,3.80
2023-01-29T01:33:20.746Z,2.80
2023-01-29T01:38:23.556Z,2.40
2023-01-29T01:43:26.435Z,3.00
2023-01-29T01:48:30.602Z,3.80
2023-01-29T01:53:38.475Z,5.00
2023-01-29T01:58:42.970Z,2.00
2023-01-29T02:04:06.615Z,3.00
2023-01-29T02:09:28.484Z,3.00
2023-01-29T02:14:31.938Z,3.00
2023-01-29T02:19:42.827Z,2.80
2023-01-29T02:24:59.150Z,2.00
2023-01-29T02:30:04.880Z,3.20
2023-01-29T02:35:28.426Z,4.80
2023-01-29T02:40:32.516Z,2.00
2023-01-29T02:45:42.604Z,2.80
2023-01-29T02:50:46.554Z,2.00
2023-01-29T02:55:50.943Z,2.00
2023-01-29T03:00:56.227Z,3.60
2023-01-29T03:06:02.164Z,3.60
2023-01-29T03:11:05.993Z,2.40
2023-01-29T03:16:15.345Z,2.80
2023-01-29T03:21:41.393Z,2.80
2023-01-29T03:27:04.179Z,4.00
2023-01-29T03:32:13.068Z,2.80
2023-01-29T03:37:18.788Z,4.60
2023-01-29T03:42:23.965Z,2.00
2023-01-29T03:47:34.458Z,2.00
2023-01-29T03:52:42.085Z,1.80
2023-01-29T03:57:46.674Z,1.60
2023-01-29T04:02:55.806Z,2.40
2023-01-29T04:08:02.232Z,2.00
2023-01-29T04:13:06.596Z,3.20
2023-01-29T04:18:11.423Z,2.00
2023-01-29T04:23:37.085Z,3.60
2023-01-29T04:28:49.541Z,3.60
2023-01-29T04:33:57.575Z,2.00
2023-01-29T04:39:06.558Z,2.00
2023-01-29T04:44:12.090Z,4.00
2023-01-29T04:49:20.839Z,2.00
2023-01-29T04:54:29.429Z,2.00
2023-01-29T04:59:34.957Z,3.20
2023-01-29T05:04:39.564Z,2.00
2023-01-29T05:09:43.519Z,1.60
2023-01-29T05:14:46.919Z,1.80
2023-01-29T05:19:51.128Z,2.80
2023-01-29T05:24:54.135Z,2.00
2023-01-29T05:29:57.857Z,4.00
2023-01-29T05:35:01.977Z,2.80
2023-01-29T05:40:08.714Z,2.00
2023-01-29T05:45:11.913Z,2.00
2023-01-29T05:50:16.719Z,2.40
2023-01-29T05:55:19.709Z,4.60
2023-01-29T06:00:22.746Z,4.00
2023-01-29T06:05:26.892Z,2.00
2023-01-29T06:10:29.848Z,2.00
2023-01-29T06:15:32.680Z,4.00
2023-01-29T06:20:37.747Z,4.80
2023-01-29T06:25:40.512Z,2.00
2023-01-29T06:30:43.332Z,4.40
2023-01-29T06:35:47.493Z,4.00
2023-01-29T06:40:50.229Z,4.40
2023-01-29T06:45:55.427Z,4.00
2023-01-29T06:51:02.979Z,4.00
2023-01-29T06:56:06.173Z,4.00
2023-01-29T07:01:10.000Z,2.40
2023-01-29T07:06:14.224Z,2.00
2023-01-29T07:11:17.136Z,2.00
2023-01-29T07:16:20.064Z,4.00
2023-01-29T07:21:24.393Z,2.00
2023-01-29T07:26:27.356Z,2.00
2023-01-29T07:31:30.295Z,2.80
2023-01-29T07:36:34.562Z,2.00
2023-01-29T07:41:37.317Z,2.40
2023-01-29T07:46:50.715Z,2.00
2023-01-29T07:51:54.888Z,4.00
2023-01-29T07:56:57.892Z,4.00
2023-01-29T08:02:00.854Z,2.00
2023-01-29T08:07:05.708Z,2.40
2023-01-29T08:12:08.616Z,5.00
2023-01-29T08:17:11.363Z,8.00
2023-01-29T08:22:16.532Z,13.00
2023-01-29T08:27:19.490Z,14.00
2023-01-29T08:32:22.254Z,10.00
2023-01-29T08:37:26.414Z,8.60
2023-01-29T08:42:29.402Z,8.80
2023-01-29T08:47:32.657Z,5.60
2023-01-29T08:52:37.012Z,8.00
2023-01-29T08:57:39.912Z,6.00
2023-01-29T09:02:42.825Z,5.60
2023-01-29T09:07:47.350Z,7.20
2023-01-29T09:12:50.376Z,4.80
2023-01-29T09:17:53.591Z,5.80
2023-01-29T09:22:59.087Z,5.40
2023-01-29T09:28:01.936Z,6.00
2023-01-29T09:33:04.874Z,8.40
2023-01-29T09:38:09.173Z,5.60
2023-01-29T09:43:14.495Z,6.40
2023-01-29T09:48:17.283Z,6.00
2023-01-29T09:53:23.039Z,5.00
2023-01-29T09:58:28.353Z,5.60
2023-01-29T10:03:41.014Z,5.20
2023-01-29T10:09:03.950Z,5.00
2023-01-29T10:14:13.128Z,5.60
2023-01-29T10:19:44.459Z,5.00
2023-01-29T10:24:51.070Z,9.00
2023-01-29T10:29:53.880Z,6.00
2023-01-29T10:34:58.472Z,4.20
2023-01-29T10:40:02.640Z,5.40
2023-01-29T10:45:11.220Z,5.00
2023-01-29T10:50:19.639Z,5.00
2023-01-29T10:55:31.147Z,4.60
2023-01-29T11:00:36.359Z,6.00
2023-01-29T11:05:42.355Z,5.00
2023-01-29T11:10:48.891Z,5.00
2023-01-29T11:15:52.899Z,14.20
2023-01-29T11:21:02.387Z,66.67
2023-01-29T11:26:08.069Z,76.25
2023-01-29T11:31:19.090Z,77.50
2023-01-29T11:36:23.508Z,80.25
2023-01-29T11:41:27.804Z,85.00
2023-01-29T11:46:30.588Z,88.25
2023-01-29T11:51:33.439Z,95.50
2023-01-29T11:56:41.393Z,42.00
2023-01-29T12:01:44.312Z,45.75
2023-01-29T12:06:49.059Z,39.80
2023-01-29T12:11:53.308Z,39.75
2023-01-29T12:16:57.871Z,39.25
2023-01-29T12:22:03.104Z,32.20
2023-01-29T12:27:10.167Z,38.80
2023-01-29T12:32:16.020Z,30.00
2023-01-29T12:37:22.341Z,33.00
2023-01-29T12:42:27.555Z,29.60
2023-01-29T12:47:32.509Z,28.20
2023-01-29T12:52:38.866Z,26.00
2023-01-29T12:57:44.903Z,25.20
2023-01-29T13:02:50.923Z,24.60
2023-01-29T13:07:56.627Z,24.40
2023-01-29T13:13:03.881Z,22.20
2023-01-29T13:18:24.655Z,26.60
2023-01-29T13:23:31.533Z,20.40
2023-01-29T13:28:35.734Z,21.40
2023-01-29T13:33:38.555Z,24.20
2023-01-29T13:38:42.124Z,20.80
2023-01-29T13:43:46.569Z,20.40
2023-01-29T13:48:50.142Z,19.40
2023-01-29T13:53:55.147Z,19.60
2023-01-29T13:58:59.357Z,15.40
2023-01-29T14:04:06.087Z,20.00
2023-01-29T14:09:53.910Z,16.00
2023-01-29T14:15:07.210Z,17.20
2023-01-29T14:20:18.243Z,15.00
2023-01-29T14:25:21.199Z,14.20
2023-01-29T14:30:25.406Z,15.20
2023-01-29T14:35:30.495Z,15.20
2023-01-29T14:40:35.664Z,13.40
2023-01-29T14:45:41.790Z,14.60
2023-01-29T14:50:52.449Z,13.80
2023-01-29T14:55:57.731Z,13.80
2023-01-29T15:01:02.059Z,12.80
2023-01-29T15:06:06.395Z,13.60
2023-01-29T15:11:28.264Z,11.40
2023-01-29T15:16:36.845Z,14.00
2023-01-29T15:21:39.637Z,11.80
2023-01-29T15:26:43.378Z,13.40
2023-01-29T15:31:48.076Z,9.40
2023-01-29T15:36:50.901Z,10.80
2023-01-29T15:42:05.909Z,11.80
2023-01-29T15:47:11.208Z,9.80
2023-01-29T15:52:17.431Z,14.20
2023-01-29T15:57:22.716Z,14.00
2023-01-29T16:02:39.226Z,17.40
2023-01-29T16:07:42.269Z,14.20
2023-01-29T16:12:47.255Z,15.20
2023-01-29T16:17:51.996Z,17.00
2023-01-29T16:22:54.806Z,14.40
2023-01-29T16:27:57.882Z,14.80
2023-01-29T16:33:05.899Z,17.20
2023-01-29T16:38:16.791Z,12.80
2023-01-29T16:43:48.194Z,15.00
2023-01-29T16:48:52.543Z,11.40
2023-01-29T16:54:03.807Z,10.80
2023-01-29T16:59:06.857Z,14.20
2023-01-29T17:04:11.908Z,11.60
2023-01-29T17:09:21.236Z,12.60
2023-01-29T17:14:24.631Z,14.20
2023-01-29T17:19:30.101Z,11.40
2023-01-29T17:24:32.947Z,13.00
2023-01-29T17:29:35.750Z,14.20
2023-01-29T17:34:40.301Z,14.40
2023-01-29T17:39:43.109Z,11.00
2023-01-29T17:44:46.136Z,10.20
2023-01-29T17:49:50.992Z,13.40
2023-01-29T17:54:53.891Z,14.40
2023-01-29T17:59:56.827Z,11.80
2023-01-29T18:05:01.005Z,12.40
2023-01-29T18:10:03.829Z,9.60
2023-01-29T18:15:07.735Z,15.00
2023-01-29T18:20:20.848Z,11.40
2023-01-29T18:25:25.719Z,11.60
2023-01-29T18:30:28.630Z,10.80
2023-01-29T18:35:32.868Z,12.00
2023-01-29T18:40:35.647Z,9.80
2023-01-29T18:45:38.507Z,11.00
2023-01-29T18:50:42.798Z,10.60
2023-01-29T18:55:45.617Z,10.40
2023-01-29T19:00:48.409Z,11.00
2023-01-29T19:05:52.586Z,11.00
2023-01-29T19:10:55.640Z,10.80
2023-01-29T19:15:58.453Z,10.40
2023-01-29T19:21:07.445Z,10.40
2023-01-29T19:26:10.381Z,10.00
2023-01-29T19:31:13.321Z,14.20
2023-01-29T19:36:17.526Z,11.60
2023-01-29T19:41:20.389Z,11.00
2023-01-29T19:46:23.136Z,11.80
2023-01-29T19:51:29.143Z,10.00
2023-01-29T19:56:32.191Z,13.60
2023-01-29T20:01:35.119Z,9.40
2023-01-29T20:06:39.292Z,11.00
2023-01-29T20:11:42.289Z,10.20
2023-01-29T20:16:45.251Z,8.20
2023-01-29T20:21:49.841Z,9.40
2023-01-29T20:26:52.638Z,10.20
2023-01-29T20:31:55.460Z,8.80
2023-01-29T20:36:59.646Z,10.00
2023-01-29T20:42:02.714Z,11.00
2023-01-29T20:47:05.898Z,10.40
2023-01-29T20:52:10.727Z,12.20
2023-01-29T20:57:13.724Z,8.20
2023-01-29T21:02:17.095Z,11.80
2023-01-29T21:07:21.325Z,12.60
2023-01-29T21:12:24.152Z,10.40
2023-01-29T21:17:28.155Z,8.20
2023-01-29T21:22:32.520Z,10.60
2023-01-29T21:27:35.360Z,10.00
2023-01-29T21:32:38.266Z,11.00
2023-01-29T21:37:42.495Z,12.00
2023-01-29T21:43:03.628Z,11.60
2023-01-29T21:48:07.054Z,11.20
2023-01-29T21:53:11.201Z,10.60
2023-01-29T21:58:14.665Z,12.80
2023-01-29T22:03:17.588Z,10.80
2023-01-29T22:08:21.714Z,10.80
2023-01-29T22:13:24.949Z,11.20
2023-01-29T22:18:27.733Z,11.00
2023-01-29T22:23:31.951Z,10.00
2023-01-29T22:28:35.004Z,11.40
2023-01-29T22:33:37.758Z,10.20
2023-01-29T22:38:43.020Z,11.00
2023-01-29T22:43:46.128Z,9.00
2023-01-29T22:48:49.161Z,9.60
2023-01-29T22:53:54.637Z,8.80
2023-01-29T22:58:58.378Z,9.40
2023-01-29T23:04:01.133Z,11.00
2023-01-29T23:09:05.304Z,8.20
2023-01-29T23:14:08.154Z,9.00
2023-01-29T23:19:11.382Z,9.80
2023-01-29T23:24:15.631Z,9.00
2023-01-29T23:29:18.407Z,9.00
2023-01-29T23:34:21.482Z,8.60
2023-01-29T23:39:25.830Z,10.60
2023-01-29T23:44:28.786Z,8.00
2023-01-29T23:49:31.616Z,8.40
2023-01-29T23:54:35.719Z,7.40
2023-01-29T23:59:38.690Z,10.00
